Time;durP1;ratioP1;P1;durP2;ratioP2;P2;SDS_P1;SDS_P2;PMS_P1;PMS_P2;Temp;Humidity;BMP_temperature;BMP_pressure;BME280_temperature;BME280_humidity;BME280_pressure;Samples;Min_cycle;Max_cycle;Signal;HPM_P1;HPM_P2
2023/10/28 00:04:25;;;;;;;2.35;2.00;;;9.50;99.90;;;10.05;100.00;96388.69;10396762;28;20720;-66
2023/10/28 00:09:28;;;;;;;1.75;1.65;;;9.60;99.90;;;10.10;100.00;96409.25;10394430;28;20213;-65
2023/10/28 00:14:31;;;;;;;1.90;1.80;;;9.60;99.90;;;10.19;100.00;96401.94;10398308;28;20242;-65
2023/10/28 00:19:37;;;;;;;2.25;2.05;;;9.70;99.90;;;10.12;100.00;96400.84;10390899;28;20256;-65
2023/10/28 00:24:41;;;;;;;1.70;1.60;;;9.70;99.90;;;10.18;100.00;96405.28;10398275;28;20226;-66
2023/10/28 00:29:51;;;;;;;2.72;1.90;;;9.70;99.90;;;10.26;100.00;96403.00;10393955;28;20300;-65
2023/10/28 00:34:59;;;;;;;1.60;1.50;;;9.70;99.90;;;10.25;100.00;96409.81;10397209;28;20236;-66
2023/10/28 00:40:05;;;;;;;2.03;1.67;;;9.70;99.90;;;10.29;100.00;96413.38;10398310;28;20307;-67
2023/10/28 00:45:11;;;;;;;2.50;1.90;;;9.70;99.90;;;10.13;100.00;96417.06;10398997;28;20287;-65
2023/10/28 00:50:16;;;;;;;3.22;2.20;;;9.70;99.90;;;10.27;100.00;96425.19;10400978;28;20232;-67
2023/10/28 00:55:22;;;;;;;2.50;2.40;;;9.70;99.90;;;10.09;100.00;96426.25;10396468;28;20236;-67
2023/10/28 01:00:26;;;;;;;2.15;1.95;;;9.60;99.90;;;10.15;100.00;96426.47;10394978;28;20269;-66
2023/10/28 01:05:33;;;;;;;2.70;2.42;;;9.60;99.90;;;10.10;100.00;96429.69;10394497;28;20230;-67
2023/10/28 01:10:39;;;;;;;3.10;2.80;;;9.70;99.90;;;10.09;100.00;96426.25;10391422;28;20218;-66
2023/10/28 01:15:42;;;;;;;2.13;2.03;;;9.60;99.90;;;10.03;100.00;96432.84;10394781;28;20222;-66
2023/10/28 01:20:47;;;;;;;2.20;1.80;;;9.50;99.90;;;9.99;100.00;96441.22;10394339;28;20724;-67
2023/10/28 01:25:51;;;;;;;2.45;1.85;;;9.50;99.90;;;9.98;100.00;96434.34;10397180;28;20226;-67
2023/10/28 01:30:55;;;;;;;1.70;1.60;;;9.50;99.90;;;10.22;100.00;96442.91;10384564;28;20234;-66
2023/10/28 01:35:59;;;;;;;1.67;1.50;;;9.60;99.90;;;10.49;100.00;96439.59;10390578;28;20283;-66
2023/10/28 01:41:03;;;;;;;1.83;1.50;;;9.80;99.90;;;10.45;100.00;96442.88;10391667;28;20637;-66
2023/10/28 01:46:07;;;;;;;1.30;1.30;;;9.90;99.90;;;10.58;100.00;96442.44;10394453;28;20243;-68
2023/10/28 01:51:10;;;;;;;1.70;1.60;;;9.90;99.90;;;10.50;100.00;96446.44;10395865;28;20240;-65
2023/10/28 01:56:15;;;;;;;2.25;1.70;;;10.00;99.90;;;10.66;100.00;96445.28;10392264;28;20222;-67
2023/10/28 02:01:18;;;;;;;1.80;1.70;;;10.10;99.90;;;10.51;100.00;96445.63;10394075;28;20318;-66
2023/10/28 02:06:21;;;;;;;1.70;1.60;;;10.20;99.90;;;10.58;100.00;96453.53;10394525;28;20316;-66
2023/10/28 02:11:27;;;;;;;1.42;1.33;;;10.20;99.90;;;10.57;100.00;96454.34;10393678;28;20239;-66
2023/10/28 02:16:30;;;;;;;2.10;1.95;;;10.10;99.90;;;10.57;100.00;96458.59;10395558;28;20577;-66
2023/10/28 02:21:33;;;;;;;1.90;1.80;;;10.10;99.90;;;10.54;100.00;96461.06;10394450;28;20241;-66
2023/10/28 02:26:39;;;;;;;2.30;1.80;;;10.10;99.90;;;10.47;100.00;96461.66;10392985;28;20228;-66
2023/10/28 02:31:42;;;;;;;2.10;1.67;;;10.00;99.90;;;10.62;100.00;96458.78;10385641;28;20816;-66
2023/10/28 02:36:46;;;;;;;2.00;1.70;;;10.00;99.90;;;10.59;100.00;96455.28;10382595;28;20633;-67
2023/10/28 02:41:50;;;;;;;1.83;1.70;;;10.00;99.90;;;10.56;100.00;96459.44;10392705;28;20229;-67
2023/10/28 02:46:54;;;;;;;2.00;1.75;;;10.00;99.90;;;10.50;100.00;96474.53;10392797;28;20225;-69
2023/10/28 02:51:57;;;;;;;2.50;1.85;;;9.90;99.90;;;10.45;100.00;96470.97;10389671;28;20232;-66
2023/10/28 02:57:03;;;;;;;3.08;2.47;;;9.90;99.90;;;10.27;100.00;96472.06;10390256;28;20775;-66
2023/10/28 03:02:06;;;;;;;4.32;2.72;;;9.70;99.90;;;10.31;100.00;96473.91;10389346;28;20318;-66
2023/10/28 03:07:09;;;;;;;2.92;2.10;;;9.70;99.90;;;10.32;100.00;96475.63;10391158;28;20313;-66
2023/10/28 03:12:15;;;;;;;5.88;3.33;;;9.70;99.90;;;10.31;100.00;96481.56;10382037;28;20283;-66
2023/10/28 03:17:18;;;;;;;4.78;2.45;;;9.70;99.90;;;10.27;100.00;96472.06;10389121;28;20232;-65
2023/10/28 03:22:21;;;;;;;4.38;2.45;;;9.80;99.90;;;10.16;100.00;96473.31;10388144;28;20249;-66
2023/10/28 03:27:26;;;;;;;3.53;2.25;;;9.70;99.90;;;10.15;100.00;96486.88;10391576;28;20229;-65
2023/10/28 03:32:29;;;;;;;2.35;2.08;;;9.60;99.90;;;10.08;100.00;96485.81;10392745;28;20717;-66
2023/10/28 03:37:32;;;;;;;2.35;2.13;;;9.60;99.90;;;10.05;100.00;96492.50;10399400;28;20661;-66
2023/10/28 03:42:36;;;;;;;3.78;2.08;;;9.50;99.90;;;10.02;100.00;96502.59;10398740;28;20228;-66
2023/10/28 03:47:40;;;;;;;2.92;2.35;;;9.50;99.90;;;10.02;100.00;96500.03;10399923;28;20316;-65
2023/10/28 03:52:43;;;;;;;2.78;1.90;;;9.50;99.90;;;10.11;100.00;96505.47;10399859;28;20245;-66
2023/10/28 03:57:48;;;;;;;2.35;2.10;;;9.50;99.90;;;10.05;100.00;96502.69;10401438;28;20280;-65
2023/10/28 04:02:51;;;;;;;4.03;2.17;;;9.50;99.90;;;10.07;100.00;96506.16;10394953;28;20233;-65
2023/10/28 04:07:54;;;;;;;4.95;2.20;;;9.50;99.90;;;10.09;100.00;96504.53;10394398;28;20221;-65
2023/10/28 04:13:00;;;;;;;5.25;2.20;;;9.50;99.90;;;10.10;100.00;96503.72;10393202;28;20230;-66
2023/10/28 04:18:03;;;;;;;3.58;2.15;;;9.50;99.90;;;10.16;100.00;96509.06;10391256;28;20233;-66
2023/10/28 04:23:07;;;;;;;5.50;2.65;;;9.60;99.90;;;10.17;100.00;96503.13;10396196;28;20228;-65
2023/10/28 04:28:11;;;;;;;3.67;2.05;;;9.60;99.90;;;10.16;100.00;96506.53;10391775;28;20226;-66
2023/10/28 04:33:14;;;;;;;3.10;2.20;;;9.60;99.90;;;10.08;100.00;96507.91;10394319;28;20229;-65
2023/10/28 04:38:17;;;;;;;3.50;2.65;;;9.60;99.90;;;10.15;100.00;96500.50;10390607;28;20234;-66
2023/10/28 04:43:22;;;;;;;3.55;2.40;;;9.60;99.90;;;10.13;100.00;96498.75;10394753;28;20234;-65
2023/10/28 04:48:27;;;;;;;4.32;2.40;;;9.60;99.90;;;10.15;100.00;96502.19;10395168;28;20745;-66
2023/10/28 04:53:30;;;;;;;3.45;2.70;;;9.60;99.90;;;10.20;100.00;96521.13;10391980;28;20234;-65
2023/10/28 04:58:34;;;;;;;5.57;2.85;;;9.60;99.90;;;10.09;100.00;96513.06;10395105;28;20697;-66
2023/10/28 05:03:38;;;;;;;4.72;2.30;;;9.50;99.90;;;10.01;100.00;96521.25;10395804;28;20232;-65
2023/10/28 05:08:41;;;;;;;4.07;2.60;;;9.40;99.90;;;9.94;100.00;96517.59;10391211;28;20965;-66
2023/10/28 05:13:45;;;;;;;2.58;2.38;;;9.40;99.90;;;9.90;100.00;96520.84;10391829;28;20878;-65
2023/10/28 05:18:48;;;;;;;2.90;2.30;;;9.30;99.90;;;9.90;100.00;96521.72;10390773;28;20222;-66
2023/10/28 05:23:52;;;;;;;6.43;2.83;;;9.30;99.90;;;9.89;100.00;96519.97;10381794;28;20610;-66
2023/10/28 05:28:57;;;;;;;2.88;2.35;;;9.30;99.90;;;9.88;100.00;96527.59;10388677;28;20225;-66
2023/10/28 05:34:00;;;;;;;4.82;2.53;;;9.30;99.90;;;9.87;100.00;96529.28;10386355;28;20236;-66
2023/10/28 05:39:07;;;;;;;2.85;2.45;;;9.30;99.90;;;9.88;100.00;96507.16;10387003;28;20978;-66
2023/10/28 05:44:11;;;;;;;3.20;2.63;;;9.20;99.90;;;9.87;100.00;96516.50;10390110;28;20399;-66
2023/10/28 05:49:14;;;;;;;6.25;5.75;;;9.20;99.90;;;9.75;100.00;96523.69;10385991;28;20221;-66
2023/10/28 05:54:18;;;;;;;5.75;5.25;;;9.10;99.90;;;9.67;100.00;96522.50;10376745;28;20228;-66
2023/10/28 05:59:22;;;;;;;6.50;3.60;;;9.00;99.90;;;9.52;100.00;96533.00;10380383;28;20236;-65
2023/10/28 06:04:25;;;;;;;8.43;3.50;;;8.80;99.90;;;9.45;100.00;96524.25;10378565;28;20232;-66
2023/10/28 06:09:29;;;;;;;6.28;4.15;;;8.80;99.90;;;9.46;100.00;96543.81;10384617;28;20226;-65
2023/10/28 06:14:33;;;;;;;5.68;3.83;;;8.80;99.90;;;9.48;100.00;96547.31;10383280;28;20615;-66
2023/10/28 06:19:36;;;;;;;5.40;3.47;;;8.80;99.90;;;9.50;100.00;96556.69;10386881;28;20318;-67
2023/10/28 06:24:40;;;;;;;4.55;2.90;;;8.90;99.90;;;9.70;100.00;96558.38;10385632;28;20234;-65
2023/10/28 06:29:44;;;;;;;4.30;2.83;;;9.10;99.90;;;9.88;100.00;96561.63;10385543;28;20217;-66
2023/10/28 06:34:49;;;;;;;4.95;2.88;;;9.30;99.90;;;10.17;100.00;96571.22;10389081;28;20651;-67
2023/10/28 06:39:52;;;;;;;5.63;3.28;;;9.50;99.90;;;10.49;100.00;96569.88;10387743;28;20321;-66
2023/10/28 06:44:57;;;;;;;4.30;3.25;;;9.70;99.90;;;10.74;100.00;96575.03;10387692;28;20232;-67
2023/10/28 06:50:04;;;;;;;4.18;2.78;;;10.00;99.90;;;10.97;100.00;96580.09;10396427;28;20732;-67
2023/10/28 06:55:12;;;;;;;5.00;2.90;;;10.30;99.90;;;10.99;100.00;96591.25;10394717;28;20222;-68
2023/10/28 07:00:17;;;;;;;5.97;3.17;;;10.40;99.90;;;10.96;100.00;96597.13;10391253;28;20230;-65
2023/10/28 07:05:21;;;;;;;5.93;3.00;;;10.30;99.90;;;11.04;100.00;96608.50;10387877;28;20229;-66
2023/10/28 07:10:24;;;;;;;3.30;2.60;;;10.40;99.90;;;11.05;100.00;96611.91;10392099;28;20233;-64
2023/10/28 07:15:29;;;;;;;4.38;2.95;;;10.40;99.90;;;11.08;99.86;96618.84;10393114;28;20252;-65
2023/10/28 07:20:32;;;;;;;13.05;11.77;;;10.30;99.90;;;11.09;97.91;96626.53;10389188;28;20239;-67
2023/10/28 07:25:35;;;;;;;3.75;3.40;;;10.40;99.90;;;11.31;96.71;96629.84;10389707;28;20234;-66
2023/10/28 07:30:45;;;;;;;6.30;3.03;;;10.60;99.90;;;11.91;97.10;96633.59;10392756;28;20233;-64
2023/10/28 07:35:50;;;;;;;4.25;2.05;;;11.30;99.90;;;12.50;91.55;96631.09;10393692;28;20525;-67
2023/10/28 07:40:53;;;;;;;4.25;2.58;;;11.80;99.90;;;13.24;88.09;96626.34;10394260;28;20241;-65
2023/10/28 07:45:57;;;;;;;2.97;2.08;;;12.60;99.90;;;14.07;82.09;96643.00;10388261;28;20283;-65
2023/10/28 07:51:01;;;;;;;2.50;1.88;;;13.40;99.90;;;14.53;78.09;96631.22;10391044;28;20748;-66
2023/10/28 07:56:04;;;;;;;3.67;2.35;;;13.90;99.90;;;14.73;74.81;96634.22;10392984;28;20230;-65
2023/10/28 08:01:15;;;;;;;2.80;2.00;;;13.90;99.90;;;14.93;75.76;96638.06;10390262;28;20233;-66
2023/10/28 08:06:19;;;;;;;2.45;2.10;;;14.20;99.90;;;15.21;71.32;96634.31;10387269;28;20244;-64
2023/10/28 08:11:37;;;;;;;2.95;2.50;;;14.50;99.90;;;15.29;70.06;96645.63;10395532;28;20234;-66
2023/10/28 08:16:41;;;;;;;2.50;2.15;;;14.50;99.90;;;15.23;70.42;96648.09;10396127;28;20233;-66
2023/10/28 08:21:44;;;;;;;2.53;2.30;;;14.50;99.90;;;15.13;70.94;96651.31;10398629;28;20257;-66
2023/10/28 08:26:47;;;;;;;2.97;2.13;;;14.30;99.90;;;15.23;71.76;96658.41;10392866;28;20444;-64
2023/10/28 08:31:54;;;;;;;3.00;2.40;;;14.50;99.90;;;15.39;69.37;96664.69;10388115;28;20232;-64
2023/10/28 08:36:57;;;;;;;3.22;1.95;;;14.70;99.90;;;15.35;68.85;96668.06;10389241;28;20503;-65
2023/10/28 08:42:06;;;;;;;3.03;1.88;;;14.60;99.90;;;15.36;70.50;96668.91;10388857;28;20235;-64
2023/10/28 08:47:10;;;;;;;2.05;1.88;;;14.40;99.90;;;15.48;69.50;96661.41;10388841;28;20723;-65
2023/10/28 08:52:19;;;;;;;5.68;2.10;;;14.60;99.90;;;15.65;68.41;96665.19;10386961;28;20248;-65
2023/10/28 08:57:24;;;;;;;2.80;2.30;;;14.90;99.90;;;15.71;68.74;96662.75;10387674;28;20248;-65
2023/10/28 09:02:31;;;;;;;3.22;2.05;;;15.00;99.90;;;15.79;67.13;96664.59;10389080;28;20241;-65
2023/10/28 09:07:35;;;;;;;3.13;2.20;;;15.10;99.90;;;15.63;67.86;96659.13;10387219;28;20324;-65
2023/10/28 09:12:38;;;;;;;4.32;1.80;;;15.10;99.90;;;15.88;67.04;96654.41;10395233;28;20253;-66
2023/10/28 09:17:43;;;;;;;3.42;1.88;;;15.40;99.90;;;15.81;66.68;96657.75;10394624;28;20303;-65
2023/10/28 09:22:46;;;;;;;4.10;2.20;;;15.20;99.90;;;16.01;64.27;96651.22;10393761;28;20226;-65
2023/10/28 09:27:50;;;;;;;4.55;2.10;;;15.60;99.90;;;16.06;65.06;96659.91;10385656;28;20704;-67
2023/10/28 09:32:56;;;;;;;3.92;1.90;;;15.60;99.90;;;16.16;63.33;96656.59;10386241;28;20230;-66
2023/10/28 09:37:59;;;;;;;2.70;1.92;;;15.60;99.90;;;16.11;61.87;96663.44;10388671;28;20230;-66
2023/10/28 09:43:04;;;;;;;2.33;1.70;;;15.50;99.90;;;16.05;62.40;96660.72;10388043;28;20295;-66
2023/10/28 09:48:13;;;;;;;3.33;2.20;;;15.60;99.90;;;15.71;61.98;96667.03;10385190;28;20233;-67
2023/10/28 09:53:19;;;;;;;3.70;2.17;;;15.20;99.90;;;15.67;62.36;96660.91;10387710;28;20315;-65
2023/10/28 09:58:28;;;;;;;4.60;1.70;;;15.20;99.90;;;15.76;61.36;96665.41;10386541;28;23529;-66
2023/10/28 10:03:55;;;;;;;2.47;1.70;;;15.40;99.90;;;15.76;62.51;96668.84;10382416;28;20701;-66
2023/10/28 10:08:58;;;;;;;2.25;1.63;;;15.20;99.90;;;15.61;61.30;96657.38;10379742;28;20237;-65
2023/10/28 10:14:10;;;;;;;2.97;1.83;;;15.10;99.90;;;15.42;63.39;96658.72;10378823;28;20240;-65
2023/10/28 10:19:22;;;;;;;3.50;2.03;;;15.00;99.90;;;15.58;63.14;96663.34;10376697;28;20218;-66
2023/10/28 10:24:25;;;;;;;4.13;2.05;;;15.00;99.90;;;15.49;62.33;96671.75;10372722;28;20230;-66
2023/10/28 10:29:41;;;;;;;2.50;1.60;;;15.00;99.90;;;15.63;63.57;96669.44;10376375;28;20225;-65
2023/10/28 10:34:46;;;;;;;3.25;1.75;;;15.10;99.90;;;15.58;61.60;96683.06;10382818;28;20233;-65
2023/10/28 10:39:49;;;;;;;3.22;1.90;;;15.00;99.90;;;15.74;61.61;96675.69;10375470;28;20226;-67
2023/10/28 10:44:54;;;;;;;4.07;1.90;;;15.20;99.90;;;15.92;61.50;96682.00;10376191;28;20237;-66
2023/10/28 10:49:59;;;;;;;2.30;1.90;;;15.40;99.90;;;16.29;60.23;96682.59;10374685;28;20237;-66
2023/10/28 10:55:04;;;;;;;2.75;1.75;;;15.80;99.90;;;16.34;60.46;96680.94;10373601;28;20252;-66
2023/10/28 11:00:12;;;;;;;6.10;2.17;;;15.90;99.90;;;16.58;58.26;96685.63;10368156;28;20230;-68
2023/10/28 11:05:18;;;;;;;2.60;2.08;;;16.20;99.90;;;16.88;57.00;96685.19;10368390;28;20658;-67
2023/10/28 11:10:22;;;;;;;3.70;2.10;;;16.40;99.90;;;16.87;56.89;96678.31;10370877;28;21251;-65
2023/10/28 11:15:26;;;;;;;4.13;1.95;;;16.50;99.90;;;16.91;56.13;96668.88;10370129;28;20329;-67
2023/10/28 11:20:30;;;;;;;4.10;2.00;;;16.40;99.90;;;17.20;55.73;96674.44;10373140;28;20217;-67
2023/10/28 11:25:35;;;;;;;4.72;1.90;;;16.70;99.90;;;17.24;54.45;96663.28;10373712;28;20237;-66
2023/10/28 11:30:38;;;;;;;3.45;1.95;;;16.70;99.90;;;17.23;55.04;96666.72;10372321;28;20218;-66
2023/10/28 11:35:43;;;;;;;4.32;2.08;;;17.00;99.90;;;17.31;54.54;96659.91;10371493;28;20278;-67
2023/10/28 11:40:46;;;;;;;5.15;1.90;;;16.90;99.90;;;17.00;54.57;96651.81;10379655;28;20229;-66
2023/10/28 11:45:49;;;;;;;3.45;1.98;;;16.60;99.90;;;16.80;55.26;96655.84;10372350;28;20256;-67
2023/10/28 11:50:54;;;;;;;5.00;1.98;;;16.00;99.90;;;16.53;56.17;96657.16;10375790;28;20638;-66
2023/10/28 11:55:57;;;;;;;4.60;2.08;;;15.90;99.90;;;16.38;56.42;96642.34;10386589;28;20244;-66
2023/10/28 12:01:01;;;;;;;5.38;1.90;;;15.70;99.90;;;16.34;55.86;96642.25;10380818;28;20299;-65
2023/10/28 12:06:06;;;;;;;5.85;2.20;;;15.80;99.90;;;16.26;55.84;96647.31;10383934;28;21685;-66
2023/10/28 12:11:24;;;;;;;4.32;2.30;;;15.50;99.90;;;16.26;56.49;96642.16;10379873;28;20221;-65
2023/10/28 12:16:29;;;;;;;4.50;2.28;;;15.50;99.90;;;16.05;57.63;96649.56;10388482;28;20223;-65
2023/10/28 12:21:34;;;;;;;5.80;2.60;;;15.40;99.90;;;15.99;58.08;96642.59;10377783;28;20230;-67
2023/10/28 12:26:39;;;;;;;4.05;2.30;;;15.20;99.90;;;15.95;57.04;96643.38;10361016;28;20233;-67
2023/10/28 12:31:43;;;;;;;6.20;2.35;;;15.30;99.90;;;15.80;58.84;96636.28;10375526;28;20237;-65
2023/10/28 12:36:48;;;;;;;5.13;2.28;;;15.10;99.90;;;15.74;59.96;96643.91;10380326;28;20226;-67
2023/10/28 12:41:51;;;;;;;5.35;2.47;;;15.00;99.90;;;15.98;60.27;96639.16;10379984;28;20876;-68
2023/10/28 12:46:54;;;;;;;5.55;2.28;;;15.10;99.90;;;15.91;60.21;96620.97;10379821;28;20221;-65
2023/10/28 12:52:00;;;;;;;2.70;2.03;;;15.10;99.90;;;16.08;59.45;96621.25;10380751;28;20253;-65
2023/10/28 12:57:05;;;;;;;5.90;2.35;;;15.30;99.90;;;16.10;60.17;96611.81;10383631;28;20215;-65
2023/10/28 13:02:08;;;;;;;6.28;2.47;;;15.30;99.90;;;16.20;59.21;96596.53;10381626;28;20229;-67
2023/10/28 13:07:13;;;;;;;4.78;2.60;;;15.30;99.90;;;16.12;59.75;96581.78;10383612;28;20237;-65
2023/10/28 13:12:16;;;;;;;6.90;2.65;;;15.30;99.90;;;16.11;60.62;96591.25;10386714;28;20244;-66
2023/10/28 13:17:20;;;;;;;2.25;2.03;;;15.20;99.90;;;16.00;60.42;96582.47;10387148;28;20230;-67
2023/10/28 13:22:24;;;;;;;4.03;2.17;;;15.20;99.90;;;15.98;61.60;96595.34;10385078;28;20237;-65
2023/10/28 13:27:27;;;;;;;5.32;2.40;;;15.10;99.90;;;15.90;62.88;96594.34;10383863;28;20230;-68
2023/10/28 13:32:30;;;;;;;5.25;2.55;;;15.10;99.90;;;16.12;60.87;96618.75;10380430;28;20696;-67
2023/10/28 13:37:51;;;;;;;4.72;2.38;;;15.30;99.90;;;16.10;61.23;96625.56;10384878;28;20232;-67
2023/10/28 13:42:55;;;;;;;4.85;2.22;;;15.30;99.90;;;16.04;61.80;96635.78;10384818;28;20281;-67
2023/10/28 13:47:58;;;;;;;5.25;3.40;;;15.20;99.90;;;15.96;62.54;96639.97;10382837;28;20608;-66
2023/10/28 13:53:03;;;;;;;6.15;2.67;;;15.00;99.90;;;15.88;63.42;96633.81;10382656;28;20921;-67
2023/10/28 13:58:07;;;;;;;8.60;5.75;;;14.90;99.90;;;15.69;64.95;96648.97;10382255;28;20297;-66
2023/10/28 14:03:12;;;;;;;4.78;3.55;;;14.80;99.90;;;15.55;66.42;96640.09;10385699;28;20240;-66
2023/10/28 14:08:16;;;;;;;5.18;4.35;;;14.70;99.90;;;15.41;68.49;96651.84;10382943;28;20232;-67
2023/10/28 14:13:19;;;;;;;4.20;3.70;;;14.60;99.90;;;15.39;69.71;96648.38;10384948;28;20351;-67
2023/10/28 14:18:23;;;;;;;4.85;2.95;;;14.60;99.90;;;15.31;71.92;96646.53;10384765;28;20237;-68
2023/10/28 14:23:27;;;;;;;5.03;3.35;;;14.60;99.90;;;15.29;72.22;96648.22;10381241;28;20717;-66
2023/10/28 14:28:30;;;;;;;4.78;3.40;;;14.50;99.90;;;15.26;72.34;96647.28;10379900;28;20646;-67
2023/10/28 14:33:34;;;;;;;6.75;3.95;;;14.50;99.90;;;15.21;73.42;96639.47;10376150;28;20230;-67
2023/10/28 14:38:40;;;;;;;7.18;4.75;;;14.40;99.90;;;15.25;75.92;96646.44;10377932;28;20232;-68
2023/10/28 14:43:43;;;;;;;4.93;4.10;;;14.50;99.90;;;15.21;77.58;96652.34;10379718;28;20230;-67
2023/10/28 14:48:46;;;;;;;5.80;3.50;;;14.40;99.90;;;15.19;79.29;96646.28;10378612;28;20518;-66
2023/10/28 14:53:51;;;;;;;7.45;3.80;;;14.40;99.90;;;15.04;80.82;96666.59;10378462;28;20712;-69
2023/10/28 14:58:54;;;;;;;5.82;4.45;;;14.30;99.90;;;14.84;84.30;96649.03;10374631;28;20511;-67
2023/10/28 15:03:57;;;;;;;6.70;4.85;;;14.20;99.90;;;14.52;89.34;96644.91;10378525;28;20221;-67
2023/10/28 15:09:02;;;;;;;7.50;5.25;;;14.00;99.90;;;14.28;93.90;96646.09;10377703;28;20233;-68
2023/10/28 15:14:05;;;;;;;6.30;4.65;;;13.70;99.90;;;14.08;96.09;96643.03;10376415;28;20225;-67
2023/10/28 15:19:09;;;;;;;6.07;3.13;;;13.50;99.90;;;13.80;95.73;96638.94;10386257;28;20229;-66
2023/10/28 15:24:14;;;;;;;5.22;3.78;;;13.30;99.90;;;13.70;97.42;96640.38;10383316;28;20610;-68
2023/10/28 15:29:18;;;;;;;4.43;3.40;;;13.10;99.90;;;13.62;98.67;96634.22;10400980;28;20226;-67
2023/10/28 15:34:22;;;;;;;5.95;3.92;;;13.10;99.90;;;13.60;99.39;96645.28;10399667;28;21680;-67
2023/10/28 15:39:26;;;;;;;6.55;4.65;;;13.00;99.90;;;13.50;100.00;96636.44;10398306;28;20705;-67
2023/10/28 15:44:29;;;;;;;6.95;3.30;;;13.00;99.90;;;13.37;100.00;96640.41;10400136;28;20236;-67
2023/10/28 15:49:32;;;;;;;7.47;4.10;;;12.80;99.90;;;13.28;100.00;96645.31;10398913;28;20232;-67
2023/10/28 15:54:37;;;;;;;5.53;4.30;;;12.70;99.90;;;13.21;100.00;96635.66;10396869;28;20610;-68
2023/10/28 15:59:42;;;;;;;9.27;5.70;;;12.60;99.90;;;13.13;100.00;96655.09;10397174;28;20685;-66
2023/10/28 16:04:45;;;;;;;7.90;5.00;;;12.50;99.90;;;13.15;100.00;96658.59;10395576;28;20248;-66
2023/10/28 16:09:50;;;;;;;7.32;4.30;;;12.50;99.90;;;13.05;100.00;96668.59;10397148;28;20229;-67
2023/10/28 16:14:54;;;;;;;10.27;7.05;;;12.50;99.90;;;13.11;100.00;96677.31;10398311;28;20229;-67
2023/10/28 16:19:57;;;;;;;7.57;5.75;;;12.40;99.90;;;13.02;100.00;96704.44;10395878;28;20229;-67
2023/10/28 16:25:01;;;;;;;10.25;7.03;;;12.30;99.90;;;12.85;100.00;96695.38;10398032;28;20237;-68
2023/10/28 16:30:06;;;;;;;9.95;5.15;;;12.20;99.90;;;12.90;100.00;96708.31;10397348;28;20226;-68
2023/10/28 16:35:10;;;;;;;35.95;21.38;;;12.20;99.90;;;12.68;100.00;96701.72;10398569;28;20225;-67
2023/10/28 16:40:14;;;;;;;27.80;15.95;;;12.10;99.90;;;12.71;100.00;96700.09;10396063;28;20225;-68
2023/10/28 16:45:18;;;;;;;11.23;7.90;;;12.10;99.90;;;12.53;100.00;96689.28;10398065;28;20225;-67
2023/10/28 16:50:23;;;;;;;9.93;7.90;;;12.00;99.90;;;12.45;100.00;96678.81;10395014;28;20234;-67
2023/10/28 16:55:28;;;;;;;9.35;8.45;;;11.90;99.90;;;12.42;100.00;96688.06;10392694;28;20717;-66
2023/10/28 17:00:31;;;;;;;10.68;8.32;;;11.80;99.90;;;12.37;100.00;96690.50;10385170;28;20725;-66
2023/10/28 17:05:34;;;;;;;11.95;9.10;;;11.80;99.90;;;12.33;100.00;96698.91;10386327;28;20221;-67
2023/10/28 17:10:39;;;;;;;7.35;6.13;;;11.80;99.90;;;12.24;100.00;96703.75;10371967;28;20241;-66
2023/10/28 17:15:42;;;;;;;5.18;4.20;;;11.70;99.90;;;12.28;100.00;96705.59;10363102;28;20252;-67
2023/10/28 17:20:45;;;;;;;6.25;4.55;;;11.70;99.90;;;12.32;100.00;96707.44;10380756;28;20225;-67
2023/10/28 17:25:50;;;;;;;5.28;3.90;;;11.70;99.90;;;12.26;100.00;96697.00;10379147;28;20601;-67
2023/10/28 17:30:55;;;;;;;7.65;5.38;;;11.70;99.90;;;12.20;100.00;96707.06;10358155;28;20230;-67
2023/10/28 17:35:59;;;;;;;9.52;4.63;;;11.60;99.90;;;12.21;100.00;96713.91;10376860;28;20763;-67
2023/10/28 17:41:14;;;;;;;6.65;4.53;;;11.60;99.90;;;12.24;100.00;96716.56;10366670;28;20235;-66
2023/10/28 17:46:18;;;;;;;6.53;4.72;;;11.70;99.90;;;12.23;100.00;96719.97;10348446;28;20707;-67
2023/10/28 17:51:21;;;;;;;10.27;9.27;;;11.70;99.90;;;12.32;100.00;96717.69;10365685;28;20238;-67
2023/10/28 17:56:27;;;;;;;9.05;6.43;;;11.60;99.90;;;12.07;100.00;96716.88;10359788;28;20240;-67
2023/10/28 18:01:30;;;;;;;7.22;6.53;;;11.50;99.90;;;12.15;100.00;96714.56;10355595;28;20229;-67
2023/10/28 18:06:34;;;;;;;6.82;6.13;;;11.50;99.90;;;12.15;100.00;96714.56;10376447;28;20253;-66
2023/10/28 18:11:40;;;;;;;8.88;7.95;;;11.50;99.90;;;12.10;100.00;96708.44;10377088;28;20485;-66
2023/10/28 18:16:43;;;;;;;8.35;7.65;;;11.50;99.90;;;11.99;100.00;96697.84;10375739;28;20225;-67
2023/10/28 18:21:47;;;;;;;9.02;7.78;;;11.40;99.90;;;12.00;100.00;96706.41;10374410;28;20225;-67
2023/10/28 18:26:52;;;;;;;9.10;6.25;;;11.40;99.90;;;12.00;100.00;96714.94;10352418;28;22424;-67
2023/10/28 18:31:55;;;;;;;8.07;6.28;;;11.40;99.90;;;12.06;100.00;96704.03;10363902;28;20573;-66
2023/10/28 18:36:58;;;;;;;6.85;5.35;;;11.40;99.90;;;11.97;100.00;96702.06;10348938;28;20229;-66
2023/10/28 18:42:04;;;;;;;7.80;4.60;;;11.30;99.90;;;12.00;100.00;96704.72;10380492;28;20835;-67
2023/10/28 18:47:08;;;;;;;6.72;3.83;;;11.30;99.90;;;11.98;100.00;96706.34;10358931;28;20228;-67
2023/10/28 18:52:12;;;;;;;5.93;3.60;;;11.30;99.90;;;11.94;100.00;96695.13;10374901;28;20225;-67
2023/10/28 18:57:16;;;;;;;10.10;7.03;;;11.30;99.90;;;11.92;100.00;96706.16;10365850;28;20241;-67
2023/10/28 19:02:20;;;;;;;7.20;5.60;;;11.20;99.90;;;11.84;100.00;96689.63;10378927;28;20233;-67
2023/10/28 19:07:23;;;;;;;7.50;5.72;;;11.20;99.90;;;11.88;100.00;96694.06;10378801;28;20244;-66
2023/10/28 19:12:27;;;;;;;5.88;4.10;;;11.20;99.90;;;11.83;100.00;96703.25;10366332;28;20556;-67
2023/10/28 19:17:30;;;;;;;6.72;4.70;;;11.10;99.90;;;11.80;100.00;96701.47;10375060;28;20236;-66
2023/10/28 19:22:34;;;;;;;15.88;9.77;;;11.10;99.90;;;11.82;100.00;96698.97;10383366;28;20675;-66
2023/10/28 19:27:38;;;;;;;8.75;6.47;;;11.10;99.90;;;11.79;100.00;96709.06;10358975;28;20329;-66
2023/10/28 19:32:41;;;;;;;7.70;6.50;;;11.10;99.90;;;11.65;100.00;96706.06;10369994;28;20222;-65
2023/10/28 19:37:45;;;;;;;4.28;3.83;;;10.90;99.90;;;11.68;100.00;96709.59;10360410;28;20709;-66
2023/10/28 19:42:50;;;;;;;5.13;3.78;;;10.90;99.90;;;11.55;100.00;96706.56;10366816;28;20638;-65
2023/10/28 19:47:54;;;;;;;8.55;3.97;;;10.90;99.90;;;11.48;100.00;96708.91;10364457;28;20233;-66
2023/10/28 19:52:57;;;;;;;6.15;3.70;;;10.80;99.90;;;11.50;100.00;96707.28;10361284;28;20236;-66
2023/10/28 19:58:03;;;;;;;6.30;4.22;;;10.80;99.90;;;11.58;100.00;96704.97;10369132;28;20225;-66
2023/10/28 20:03:06;;;;;;;8.18;5.50;;;10.90;99.90;;;11.53;100.00;96709.06;10378320;28;20556;-66
2023/10/28 20:08:09;;;;;;;8.38;5.45;;;10.80;99.90;;;11.43;100.00;96723.22;10384919;28;20229;-66
2023/10/28 20:13:14;;;;;;;6.03;4.63;;;10.80;99.90;;;11.50;100.00;96725.19;10379076;28;20605;-66
2023/10/28 20:18:17;;;;;;;6.50;5.10;;;10.80;99.90;;;11.56;100.00;96714.31;10385193;28;20230;-65
2023/10/28 20:23:20;;;;;;;5.85;4.45;;;10.80;99.90;;;11.34;100.00;96710.13;10392928;28;20234;-66
2023/10/28 20:28:24;;;;;;;5.15;4.20;;;10.70;99.90;;;11.31;100.00;96714.25;10390465;28;20230;-66
2023/10/28 20:33:28;;;;;;;6.60;4.43;;;10.60;99.90;;;11.25;100.00;96709.81;10363104;28;20748;-65
2023/10/28 20:38:31;;;;;;;4.45;3.88;;;10.50;99.90;;;11.25;100.00;96699.56;10380303;28;20226;-66
2023/10/28 20:43:35;;;;;;;5.70;3.90;;;10.60;99.90;;;11.24;100.00;96698.66;10373852;28;20784;-66
2023/10/28 20:48:38;;;;;;;5.32;4.55;;;10.50;99.90;;;11.27;100.00;96698.81;10382382;28;20229;-66
2023/10/28 20:53:42;;;;;;;6.10;4.82;;;10.60;99.90;;;11.10;100.00;96696.44;10393612;28;20236;-66
2023/10/28 20:58:47;;;;;;;6.93;4.90;;;10.40;99.90;;;11.01;100.00;96702.97;10390468;28;20226;-66
2023/10/28 21:03:50;;;;;;;5.72;4.20;;;10.30;99.90;;;11.05;100.00;96694.59;10393230;28;20744;-66